Time;durP1;ratioP1;P1;durP2;ratioP2;P2;SDS_P1;SDS_P2;PMS_P1;PMS_P2;Temp;Humidity;BMP_temperature;BMP_pressure;BME280_temperature;BME280_humidity;BME280_pressure;Samples;Min_cycle;Max_cycle;Signal;HPM_P1;HPM_P2
2021/12/02 00:02:19;;;;;;;41.03;3.70;;;;;;;4.93;100.00;99095.16;5051027;28;20291;-54
2021/12/02 00:04:47;;;;;;;5.27;2.17;;;;;;;4.78;100.00;99092.78;5050814;28;20287;-56
2021/12/02 00:07:14;;;;;;;1.90;1.80;;;;;;;4.44;100.00;99043.50;5049949;28;20199;-56
2021/12/02 00:09:41;;;;;;;2.87;2.27;;;;;;;4.81;100.00;99097.88;5050854;28;20211;-56
2021/12/02 00:12:10;;;;;;;2.13;1.43;;;;;;;4.81;100.00;99095.31;5050710;28;20200;-56
2021/12/02 00:14:41;;;;;;;3.17;2.10;;;;;;;4.79;100.00;99097.03;5050958;28;20671;-55
2021/12/02 00:17:14;;;;;;;1.27;1.27;;;;;;;4.66;100.00;99085.19;5050878;28;20204;-55
2021/12/02 00:22:28;;;;;;;1.63;1.53;;;;;;;4.69;100.00;99111.72;5050615;28;20307;-57
2021/12/02 00:25:00;;;;;;;3.97;3.23;;;;;;;4.62;100.00;99114.41;5050448;28;20259;-56
2021/12/02 00:27:29;;;;;;;2.33;2.00;;;;;;;4.51;100.00;99087.97;5050711;28;20238;-56
2021/12/02 00:29:59;;;;;;;2.37;1.13;;;;;;;4.52;100.00;99112.78;5050508;28;20200;-56
2021/12/02 00:32:28;;;;;;;1.17;1.17;;;;;;;4.48;100.00;99122.25;5050315;28;20237;-55
2021/12/02 00:34:57;;;;;;;7.73;1.80;;;;;;;4.41;100.00;99122.31;5050160;28;20231;-56
2021/12/02 00:37:26;;;;;;;1.60;1.50;;;;;;;4.29;100.00;99097.59;5050351;28;20207;-56
2021/12/02 00:39:53;;;;;;;3.17;2.53;;;;;;;4.22;100.00;99117.38;5050323;28;20260;-57
2021/12/02 00:42:21;;;;;;;2.37;2.27;;;;;;;4.28;100.00;99117.31;5050570;28;20198;-56
2021/12/02 00:44:50;;;;;;;3.60;2.23;;;;;;;4.36;100.00;99109.53;5050395;28;20281;-55
2021/12/02 00:47:17;;;;;;;4.80;3.30;;;;;;;4.35;100.00;99098.41;5050261;28;20257;-56
2021/12/02 00:49:48;;;;;;;4.30;2.47;;;;;;;4.39;100.00;99101.81;5050148;28;20656;-56
2021/12/02 00:52:16;;;;;;;13.77;2.63;;;;;;;4.35;100.00;99105.25;5050389;28;20199;-56
2021/12/02 00:54:46;;;;;;;2.03;1.93;;;;;;;4.34;100.00;99109.53;5050381;28;20526;-56
2021/12/02 00:57:13;;;;;;;2.13;1.70;;;;;;;4.35;100.00;99103.53;5050169;28;20704;-55
2021/12/02 00:59:42;;;;;;;3.30;1.87;;;;;;;4.35;100.00;99098.41;5050164;28;20204;-57
2021/12/02 01:02:11;;;;;;;2.20;1.90;;;;;;;4.39;100.00;99091.53;5049806;28;20196;-55
2021/12/02 01:04:39;;;;;;;5.70;2.60;;;;;;;4.33;100.00;99086.44;5049914;28;20239;-56
2021/12/02 01:07:06;;;;;;;6.20;3.03;;;;;;;4.28;100.00;99083.94;5049925;28;20200;-57
2021/12/02 01:09:33;;;;;;;1.47;0.97;;;;;;;4.28;100.00;99085.66;5049969;28;20245;-57
2021/12/02 01:12:01;;;;;;;5.93;3.03;;;;;;;3.98;100.00;99089.34;5050030;28;20234;-57
2021/12/02 01:14:29;;;;;;;6.10;1.70;;;;;;;3.78;100.00;99086.97;5049919;28;20199;-57
2021/12/02 01:16:56;;;;;;;2.03;1.60;;;;;;;3.80;100.00;99086.94;5050171;28;20745;-56
2021/12/02 01:19:24;;;;;;;1.97;1.37;;;;;;;3.79;100.00;99083.53;5052196;28;20200;-57
2021/12/02 01:21:52;;;;;;;10.93;5.57;;;;;;;3.83;100.00;99087.78;5054083;28;20248;-56
2021/12/02 01:24:20;;;;;;;2.50;2.23;;;;;;;3.92;100.00;99086.84;5053853;28;20195;-57
2021/12/02 01:26:53;;;;;;;2.10;1.87;;;;;;;3.73;100.00;99082.72;5054048;28;20701;-56
2021/12/02 01:29:22;;;;;;;2.00;1.90;;;;;;;3.77;100.00;99077.56;5053839;28;20232;-55
2021/12/02 01:31:52;;;;;;;6.17;2.10;;;;;;;3.62;100.00;99060.56;5053825;28;20203;-56
2021/12/02 01:34:25;;;;;;;0.93;0.87;;;;;;;3.64;100.00;99070.81;5053737;28;20204;-56
2021/12/02 01:36:54;;;;;;;7.90;3.63;;;;;;;3.74;100.00;99069.03;5053964;28;20218;-55
2021/12/02 01:39:21;;;;;;;2.97;1.87;;;;;;;3.65;100.00;99069.97;5053733;28;20241;-55
2021/12/02 01:41:51;;;;;;;1.80;1.70;;;;;;;3.49;100.00;99065.81;5053534;28;20234;-55
2021/12/02 01:44:20;;;;;;;2.93;2.70;;;;;;;3.33;100.00;99070.22;5053653;28;20200;-56
2021/12/02 01:46:49;;;;;;;7.40;2.20;;;;;;;3.23;100.00;99066.84;5053516;28;20312;-56
2021/12/02 01:49:17;;;;;;;1.97;1.43;;;;;;;3.11;100.00;99060.94;5053540;28;20193;-55
2021/12/02 01:51:47;;;;;;;5.90;1.87;;;;;;;2.98;100.00;99051.63;5053593;28;20197;-55
2021/12/02 01:54:16;;;;;;;3.07;2.33;;;;;;;2.97;100.00;99076.41;5053157;28;20246;-55
2021/12/02 01:56:47;;;;;;;2.17;1.93;;;;;;;2.75;100.00;99070.53;5053293;28;20192;-55
2021/12/02 01:59:17;;;;;;;5.20;3.33;;;;;;;2.78;100.00;99088.47;5053297;28;20305;-57
2021/12/02 02:01:46;;;;;;;8.73;3.60;;;;;;;2.71;100.00;99097.03;5053398;28;20201;-55
2021/12/02 02:04:13;;;;;;;1.53;1.37;;;;;;;2.64;100.00;99090.22;5052869;28;20263;-58
2021/12/02 02:06:45;;;;;;;1.53;1.53;;;;;;;2.61;100.00;99085.13;5053012;28;20262;-57
2021/12/02 02:09:14;;;;;;;8.67;2.83;;;;;;;2.61;100.00;99087.66;5052911;28;20235;-58
2021/12/02 02:11:41;;;;;;;2.27;1.83;;;;;;;2.59;100.00;99081.72;5053380;28;20224;-56
2021/12/02 02:14:09;;;;;;;1.03;0.93;;;;;;;2.88;100.00;99074.75;5052880;28;20267;-57
2021/12/02 02:16:38;;;;;;;0.83;0.83;;;;;;;3.01;100.00;99084.94;5053083;28;20671;-57
2021/12/02 02:19:08;;;;;;;2.50;2.40;;;;;;;3.13;100.00;99084.88;5052626;28;20205;-57
2021/12/02 02:21:36;;;;;;;2.73;1.10;;;;;;;3.30;100.00;99077.91;5053057;28;20784;-57
2021/12/02 02:24:04;;;;;;;1.13;0.60;;;;;;;3.38;100.00;99089.00;5052779;28;20195;-57
2021/12/02 02:26:35;;;;;;;1.53;1.43;;;;;;;3.35;100.00;99085.59;5052767;28;20233;-57
2021/12/02 02:29:02;;;;;;;3.30;1.83;;;;;;;3.40;100.00;99082.13;5052619;28;20269;-59
2021/12/02 02:31:31;;;;;;;6.03;3.47;;;;;;;3.43;100.00;99083.81;5051494;28;20233;-58
2021/12/02 02:33:59;;;;;;;6.27;3.00;;;;;;;3.45;100.00;99082.94;5052577;28;20234;-56
2021/12/02 02:36:30;;;;;;;0.50;0.50;;;;;;;3.43;100.00;99082.09;5052621;28;20754;-57
2021/12/02 02:38:59;;;;;;;1.77;1.27;;;;;;;3.49;100.00;99076.94;5052519;28;20201;-57
2021/12/02 02:41:29;;;;;;;1.73;1.40;;;;;;;3.54;100.00;99075.19;5052616;28;20195;-57
2021/12/02 02:43:59;;;;;;;2.73;1.37;;;;;;;3.56;100.00;99068.31;5052425;28;20735;-57
2021/12/02 02:46:28;;;;;;;3.90;2.13;;;;;;;3.54;100.00;99066.63;5052062;28;20592;-55
2021/12/02 02:48:56;;;;;;;1.07;1.07;;;;;;;3.56;100.00;99072.59;5052097;28;20191;-56
2021/12/02 02:51:23;;;;;;;1.10;0.47;;;;;;;3.52;100.00;99068.34;5052222;28;20202;-57
2021/12/02 02:53:53;;;;;;;0.40;0.40;;;;;;;3.52;100.00;99084.59;5052370;28;20736;-57
2021/12/02 02:56:23;;;;;;;3.20;2.30;;;;;;;3.53;100.00;99078.59;5052038;28;20193;-57
2021/12/02 02:59:02;;;;;;;1.70;0.97;;;;;;;3.51;100.00;99085.44;5052000;28;20643;-58
2021/12/02 03:01:43;;;;;;;0.97;0.97;;;;;;;3.50;100.00;99091.44;5052183;28;20208;-57
2021/12/02 03:04:23;;;;;;;0.33;0.33;;;;;;;3.55;100.00;99099.13;5051849;28;20237;-58
2021/12/02 03:06:53;;;;;;;2.17;2.07;;;;;;;3.45;100.00;99097.50;5051914;28;20310;-58
2021/12/02 03:09:37;;;;;;;1.27;1.07;;;;;;;3.24;100.00;99109.59;5051943;28;20205;-56
2021/12/02 03:12:12;;;;;;;1.10;1.10;;;;;;;3.15;100.00;99113.94;5051848;28;20194;-57
2021/12/02 03:14:52;;;;;;;1.13;1.10;;;;;;;3.00;100.00;99109.72;5051922;28;20282;-57
2021/12/02 03:17:18;;;;;;;2.57;1.53;;;;;;;3.06;100.00;99108.81;5051711;28;20192;-57
2021/12/02 03:19:47;;;;;;;4.63;3.13;;;;;;;3.19;100.00;99100.22;5051667;28;20230;-58
2021/12/02 03:22:15;;;;;;;1.57;1.47;;;;;;;3.24;100.00;99113.88;5051823;28;20197;-56
2021/12/02 03:24:43;;;;;;;3.17;2.37;;;;;;;3.17;100.00;99127.56;5051592;28;20201;-56
2021/12/02 03:27:11;;;;;;;1.77;1.67;;;;;;;3.21;100.00;99119.00;5051535;28;20257;-57
2021/12/02 03:29:39;;;;;;;1.47;1.37;;;;;;;3.17;100.00;99107.06;5051665;28;20567;-57
2021/12/02 03:32:06;;;;;;;6.07;2.80;;;;;;;3.13;100.00;99106.25;5051335;28;20198;-57
2021/12/02 03:34:34;;;;;;;3.20;2.53;;;;;;;2.96;100.00;99102.91;5051482;28;20197;-57
2021/12/02 03:37:02;;;;;;;1.37;1.33;;;;;;;2.79;100.00;99097.00;5051457;28;20283;-57
2021/12/02 03:39:29;;;;;;;3.23;2.40;;;;;;;2.68;100.00;99091.94;5051409;28;20201;-58
2021/12/02 03:41:57;;;;;;;4.10;2.80;;;;;;;2.47;100.00;99087.75;5050363;28;20280;-59
2021/12/02 03:44:26;;;;;;;0.87;0.87;;;;;;;2.42;100.00;99094.56;5051013;28;20203;-58
2021/12/02 03:46:54;;;;;;;1.43;1.40;;;;;;;2.46;100.00;99073.22;5050995;28;20311;-59
2021/12/02 03:49:21;;;;;;;1.37;1.33;;;;;;;2.69;100.00;99098.75;5051151;28;20221;-58
2021/12/02 03:51:49;;;;;;;14.63;2.33;;;;;;;2.74;100.00;99102.16;5048236;28;20197;-59
2021/12/02 03:54:16;;;;;;;1.97;1.87;;;;;;;2.87;100.00;99098.69;5047023;28;20248;-58
2021/12/02 03:56:43;;;;;;;1.07;1.07;;;;;;;2.89;100.00;99096.97;5050027;28;20252;-58
2021/12/02 03:59:10;;;;;;;0.77;0.77;;;;;;;3.02;100.00;99086.66;5050004;28;20346;-58
2021/12/02 04:01:39;;;;;;;1.03;1.03;;;;;;;3.22;100.00;99085.66;5050108;28;20267;-59
2021/12/02 04:04:06;;;;;;;2.20;2.10;;;;;;;3.19;100.00;99095.09;5049627;28;20243;-58
2021/12/02 04:06:32;;;;;;;1.17;1.17;;;;;;;3.29;100.00;99094.16;5050035;28;20252;-59
2021/12/02 04:09:03;;;;;;;6.17;3.40;;;;;;;3.34;100.00;99096.72;5049126;28;20226;-58
2021/12/02 04:11:33;;;;;;;1.37;1.37;;;;;;;3.22;100.00;99103.63;5049421;28;20305;-59
2021/12/02 04:14:10;;;;;;;14.23;6.33;;;;;;;3.08;100.00;99094.28;5050082;28;20330;-57
2021/12/02 04:16:40;;;;;;;2.57;1.80;;;;;;;3.02;100.00;99090.06;5050161;28;20218;-58
2021/12/02 04:19:10;;;;;;;3.10;1.07;;;;;;;3.16;100.00;99092.56;5048575;28;20254;-57
2021/12/02 04:21:37;;;;;;;0.80;0.80;;;;;;;3.01;100.00;99100.31;5049457;28;20238;-57
2021/12/02 04:24:05;;;;;;;4.03;3.63;;;;;;;3.10;100.00;99090.00;5039393;28;20229;-57
2021/12/02 04:26:32;;;;;;;1.03;1.03;;;;;;;2.95;100.00;99092.66;5043010;28;20228;-56
2021/12/02 04:28:59;;;;;;;2.27;2.17;;;;;;;2.96;100.00;99086.66;5042419;28;20308;-56
2021/12/02 04:31:26;;;;;;;5.40;2.93;;;;;;;3.00;100.00;99088.38;5044951;28;21000;-58
2021/12/02 04:33:54;;;;;;;2.33;1.70;;;;;;;3.16;100.00;99084.88;5036267;28;20852;-58
2021/12/02 04:36:21;;;;;;;2.13;1.47;;;;;;;3.16;100.00;99090.00;5042973;28;20719;-58
2021/12/02 04:38:48;;;;;;;1.83;1.73;;;;;;;3.25;100.00;99093.34;5042539;28;20240;-59
2021/12/02 04:41:17;;;;;;;6.23;2.20;;;;;;;3.12;100.00;99098.56;5040994;28;20214;-58
2021/12/02 04:43:44;;;;;;;1.37;1.27;;;;;;;3.01;100.00;99098.63;5046625;28;20246;-58
2021/12/02 04:46:11;;;;;;;2.77;1.60;;;;;;;2.81;100.00;99103.00;5042836;28;20610;-57
2021/12/02 04:48:38;;;;;;;3.03;2.00;;;;;;;2.85;100.00;99099.53;5048251;28;20231;-58
2021/12/02 04:51:06;;;;;;;7.97;1.93;;;;;;;2.66;100.00;99109.03;5047715;28;20283;-58
2021/12/02 04:53:33;;;;;;;2.30;1.40;;;;;;;2.69;100.00;99100.47;5046684;28;20304;-58
2021/12/02 04:56:00;;;;;;;4.83;2.80;;;;;;;2.63;100.00;99103.03;5047909;28;20265;-59
2021/12/02 04:58:27;;;;;;;3.03;2.30;;;;;;;2.47;100.00;99099.69;5048042;28;20208;-54
2021/12/02 05:00:54;;;;;;;1.20;1.17;;;;;;;2.47;100.00;99102.25;5048884;28;20230;-53
2021/12/02 05:03:21;;;;;;;2.90;2.80;;;;;;;2.51;100.00;99106.50;5048606;28;20202;-54
2021/12/02 05:05:48;;;;;;;4.70;1.97;;;;;;;2.34;100.00;99096.31;5047884;28;20200;-53
2021/12/02 05:08:16;;;;;;;2.77;2.57;;;;;;;2.22;100.00;99092.94;5037786;28;20196;-54
2021/12/02 05:10:43;;;;;;;5.23;2.77;;;;;;;2.06;100.00;99105.75;5038062;28;20221;-53
2021/12/02 05:13:10;;;;;;;11.87;3.37;;;;;;;1.97;100.00;99107.47;5044718;28;20307;-55
2021/12/02 05:15:37;;;;;;;31.90;4.47;;;;;;;1.96;100.00;99110.88;5048296;28;20226;-55
2021/12/02 05:18:04;;;;;;;5.70;5.23;;;;;;;1.95;100.00;99110.03;5047253;28;20217;-54
2021/12/02 05:20:31;;;;;;;4.50;2.30;;;;;;;1.90;100.00;99124.53;5048006;28;20307;-56
2021/12/02 05:22:58;;;;;;;8.90;2.63;;;;;;;1.91;100.00;99115.16;5048913;28;20216;-56
2021/12/02 05:25:26;;;;;;;3.47;3.17;;;;;;;1.74;100.00;99117.72;5048348;28;20258;-57
2021/12/02 05:27:53;;;;;;;4.23;3.83;;;;;;;1.56;100.00;99112.59;5048628;28;20247;-55
2021/12/02 05:30:20;;;;;;;4.43;4.10;;;;;;;1.65;100.00;99108.34;5049457;28;20193;-56
2021/12/02 05:32:47;;;;;;;2.73;2.53;;;;;;;1.67;100.00;99105.78;5049576;28;20188;-56
2021/12/02 05:35:14;;;;;;;3.67;3.37;;;;;;;1.76;100.00;99110.91;5049494;28;20688;-58
2021/12/02 05:37:41;;;;;;;3.87;3.57;;;;;;;1.72;100.00;99104.06;5049536;28;20201;-55
2021/12/02 05:40:09;;;;;;;9.47;6.17;;;;;;;1.64;100.00;99113.44;5049711;28;20675;-55
2021/12/02 05:42:38;;;;;;;5.03;3.77;;;;;;;1.68;100.00;99113.47;5049495;28;20199;-56
2021/12/02 05:45:05;;;;;;;13.07;5.97;;;;;;;1.76;100.00;99121.97;5049408;28;20201;-56
2021/12/02 05:47:32;;;;;;;5.73;2.63;;;;;;;1.85;100.00;99112.59;5049219;28;20228;-57
2021/12/02 05:49:59;;;;;;;2.83;2.07;;;;;;;1.81;100.00;99110.03;5046723;28;20644;-56
2021/12/02 05:52:26;;;;;;;4.13;3.27;;;;;;;1.77;100.00;99107.50;5048992;28;20314;-56
2021/12/02 05:54:53;;;;;;;1.83;1.73;;;;;;;1.88;100.00;99116.00;5048420;28;20362;-56
2021/12/02 05:57:20;;;;;;;2.83;1.52;;;;;;;1.91;100.00;99116.03;5048208;28;20788;-58
2021/12/02 05:59:48;;;;;;;2.90;2.70;;;;;;;2.18;100.00;99113.41;5028938;28;20228;-58
2021/12/02 06:02:15;;;;;;;3.07;2.90;;;;;;;2.39;100.00;99114.22;5037233;28;20817;-58
2021/12/02 06:04:44;;;;;;;5.37;3.13;;;;;;;2.49;100.00;99115.88;5047546;28;20232;-58
2021/12/02 06:07:11;;;;;;;2.03;1.93;;;;;;;2.57;100.00;99114.19;5051005;28;20221;-57
2021/12/02 06:09:38;;;;;;;6.70;3.00;;;;;;;2.63;100.00;99114.16;5051638;28;20303;-56
2021/12/02 06:12:06;;;;;;;5.93;2.27;;;;;;;2.73;100.00;99120.94;5052374;28;20811;-56
2021/12/02 06:14:33;;;;;;;1.13;1.07;;;;;;;2.77;100.00;99121.78;5052282;28;20220;-57
2021/12/02 06:17:01;;;;;;;2.43;1.83;;;;;;;2.78;100.00;99124.34;5052312;28;20647;-56
2021/12/02 06:19:28;;;;;;;2.97;1.37;;;;;;;2.79;100.00;99125.19;5052184;28;20235;-56
2021/12/02 06:21:55;;;;;;;1.80;1.70;;;;;;;2.86;100.00;99121.75;5052093;28;20713;-56
2021/12/02 06:24:28;;;;;;;1.97;1.73;;;;;;;2.90;100.00;99118.31;5048435;28;20228;-57
2021/12/02 06:26:56;;;;;;;3.13;2.43;;;;;;;2.90;100.00;99116.59;5052498;28;20658;-56
2021/12/02 06:29:23;;;;;;;4.10;2.60;;;;;;;2.90;100.00;99121.75;5032721;28;20687;-57
2021/12/02 06:31:50;;;;;;;2.40;2.30;;;;;;;3.01;100.00;99125.97;5032765;28;20213;-57
2021/12/02 06:34:18;;;;;;;1.73;1.63;;;;;;;3.11;100.00;99122.50;5045799;28;20228;-57
2021/12/02 06:36:45;;;;;;;1.93;1.83;;;;;;;3.21;100.00;99121.56;5051538;28;20203;-57
2021/12/02 06:39:12;;;;;;;3.40;2.47;;;;;;;3.29;100.00;99117.25;5048993;28;20691;-58
2021/12/02 06:41:39;;;;;;;2.30;2.20;;;;;;;3.37;100.00;99112.94;5052048;28;20193;-58
2021/12/02 06:44:06;;;;;;;4.63;3.67;;;;;;;3.46;100.00;99109.44;5050862;28;20236;-57
2021/12/02 06:46:34;;;;;;;2.97;2.80;;;;;;;3.51;100.00;99105.97;5051701;28;20295;-57
2021/12/02 06:49:01;;;;;;;3.43;3.20;;;;;;;3.56;100.00;99106.81;5051925;28;20209;-57
2021/12/02 06:51:29;;;;;;;56.20;5.73;;;;;;;3.68;100.00;99105.03;5051739;28;20208;-57
2021/12/02 06:53:57;;;;;;;15.57;5.37;;;;;;;3.76;100.00;99118.63;5052117;28;20193;-57
2021/12/02 06:56:24;;;;;;;2.13;2.03;;;;;;;3.84;100.00;99107.44;5050521;28;20210;-58
2021/12/02 06:58:51;;;;;;;6.03;2.83;;;;;;;3.91;100.00;99110.81;5050461;28;20286;-57
2021/12/02 07:01:18;;;;;;;4.50;4.20;;;;;;;4.03;100.00;99107.28;5050405;28;20213;-58
2021/12/02 07:03:45;;;;;;;4.63;3.23;;;;;;;4.12;100.00;99107.19;5051215;28;20230;-57
2021/12/02 07:06:12;;;;;;;7.07;3.03;;;;;;;4.15;100.00;99109.75;5051981;28;20293;-58
2021/12/02 07:08:40;;;;;;;5.87;5.07;;;;;;;4.15;100.00;99110.59;5051764;28;20314;-57
2021/12/02 07:11:09;;;;;;;4.07;2.87;;;;;;;4.17;100.00;99106.31;5051688;28;20235;-58
2021/12/02 07:13:37;;;;;;;2.90;2.80;;;;;;;4.27;100.00;99110.47;5051892;28;20201;-58
2021/12/02 07:16:05;;;;;;;14.13;4.67;;;;;;;4.35;100.00;99106.13;5051228;28;20212;-57
2021/12/02 07:18:36;;;;;;;4.63;4.10;;;;;;;4.28;100.00;99109.63;5051765;28;20636;-57
2021/12/02 07:21:03;;;;;;;3.60;3.00;;;;;;;4.32;100.00;99111.28;5050588;28;20200;-57
2021/12/02 07:23:30;;;;;;;4.43;4.13;;;;;;;4.43;100.00;99115.44;5050619;28;20213;-58
2021/12/02 07:25:59;;;;;;;12.57;4.67;;;;;;;4.46;100.00;99115.41;5050282;28;20210;-57
2021/12/02 07:28:27;;;;;;;10.40;5.03;;;;;;;4.38;100.00;99110.38;5050611;28;20211;-57
2021/12/02 07:30:55;;;;;;;5.30;3.67;;;;;;;4.32;100.00;99116.41;5050359;28;20189;-58
2021/12/02 07:33:23;;;;;;;6.60;2.87;;;;;;;4.30;100.00;99123.28;5049691;28;20200;-57
2021/12/02 07:35:50;;;;;;;7.00;3.37;;;;;;;4.17;100.00;99121.72;5048775;28;20670;-59
2021/12/02 07:38:18;;;;;;;2.80;2.17;;;;;;;4.16;100.00;99107.16;5049222;28;20218;-59
2021/12/02 07:40:45;;;;;;;11.33;3.97;;;;;;;4.53;100.00;99124.75;5050980;28;20251;-57
2021/12/02 07:43:14;;;;;;;7.80;4.00;;;;;;;4.69;100.00;99126.31;5047657;28;20219;-57
2021/12/02 07:45:41;;;;;;;4.60;4.17;;;;;;;4.72;100.00;99116.00;5049042;28;20224;-57
2021/12/02 07:48:09;;;;;;;12.10;4.03;;;;;;;4.91;100.00;99117.47;5049056;28;20230;-57
2021/12/02 07:50:37;;;;;;;5.53;4.03;;;;;;;5.01;100.00;99102.75;5048571;28;20282;-57
2021/12/02 07:53:06;;;;;;;11.57;4.30;;;;;;;5.18;100.00;99115.41;5049522;28;20254;-57
2021/12/02 07:55:37;;;;;;;2.43;2.33;;;;;;;5.18;100.00;99116.25;5049425;28;20220;-57
2021/12/02 07:58:06;;;;;;;3.03;2.80;;;;;;;5.29;100.00;99111.81;5050240;28;20231;-58
2021/12/02 08:00:35;;;;;;;5.17;4.77;;;;;;;5.53;100.00;99110.59;5048996;28;20316;-57
2021/12/02 08:03:02;;;;;;;17.23;6.93;;;;;;;5.56;100.00;99109.69;5049397;28;20218;-56
2021/12/02 08:05:30;;;;;;;4.80;4.47;;;;;;;5.54;100.00;99109.72;5050437;28;20274;-57
2021/12/02 08:07:57;;;;;;;12.40;5.20;;;;;;;5.63;100.00;99104.47;5049993;28;20236;-57
2021/12/02 08:10:24;;;;;;;6.03;3.93;;;;;;;5.62;100.00;99107.91;5049884;28;20228;-59
2021/12/02 08:12:51;;;;;;;12.17;6.63;;;;;;;5.76;100.00;99105.94;5049855;28;20243;-56
2021/12/02 08:15:21;;;;;;;5.27;3.80;;;;;;;5.83;100.00;99091.25;5050104;28;20224;-59
2021/12/02 08:17:50;;;;;;;11.57;6.03;;;;;;;5.97;100.00;99089.34;5049846;28;20362;-60
2021/12/02 08:20:19;;;;;;;7.80;6.07;;;;;;;6.02;100.00;99091.81;5049810;28;20255;-57
2021/12/02 08:22:46;;;;;;;22.93;7.13;;;;;;;6.17;100.00;99095.00;5048439;28;20212;-58
2021/12/02 08:25:13;;;;;;;3.83;2.90;;;;;;;6.39;100.00;99103.19;5048528;28;20303;-57
2021/12/02 08:27:41;;;;;;;6.77;5.73;;;;;;;6.50;99.01;99101.25;5049143;28;20780;-59
2021/12/02 08:30:11;;;;;;;7.43;6.73;;;;;;;6.56;98.37;99101.13;5049412;28;20278;-57
2021/12/02 08:32:41;;;;;;;13.63;5.70;;;;;;;6.61;98.89;99095.03;5049475;28;20754;-58
2021/12/02 08:35:11;;;;;;;3.93;3.70;;;;;;;6.66;97.97;99090.66;5049712;28;20273;-58
2021/12/02 08:37:42;;;;;;;5.73;4.80;;;;;;;6.57;97.99;99065.88;5048777;28;20289;-58
2021/12/02 08:40:11;;;;;;;8.27;5.43;;;;;;;6.77;96.39;99086.13;5048900;28;20212;-57
2021/12/02 08:42:38;;;;;;;5.93;4.73;;;;;;;6.81;96.00;99077.41;5048842;28;20224;-58
2021/12/02 08:45:06;;;;;;;10.03;3.77;;;;;;;6.89;97.20;99080.69;5048606;28;20311;-58
2021/12/02 08:47:34;;;;;;;4.13;3.77;;;;;;;6.89;96.59;99075.53;5049256;28;20267;-56
2021/12/02 08:50:01;;;;;;;9.90;5.40;;;;;;;7.12;95.91;99081.03;5049672;28;20274;-56
2021/12/02 08:52:30;;;;;;;5.43;4.57;;;;;;;7.17;95.63;99076.63;5049267;28;20319;-61
2021/12/02 08:54:57;;;;;;;6.07;5.37;;;;;;;7.17;96.35;99079.22;5048699;28;20641;-57
2021/12/02 08:57:25;;;;;;;17.13;7.80;;;;;;;7.11;95.74;99045.78;5048986;28;20729;-58
2021/12/02 08:59:52;;;;;;;8.30;7.47;;;;;;;7.24;95.68;99067.88;5049825;28;20227;-56
2021/12/02 09:02:20;;;;;;;7.07;5.87;;;;;;;7.28;95.71;99060.91;5049194;28;20255;-56
2021/12/02 09:04:47;;;;;;;5.93;3.60;;;;;;;7.40;93.81;99052.88;5049271;28;20240;-57
2021/12/02 09:07:15;;;;;;;5.33;4.83;;;;;;;7.31;94.36;99034.19;5049307;28;20229;-58
2021/12/02 09:09:43;;;;;;;5.13;4.67;;;;;;;7.52;92.58;99055.19;5048448;28;20225;-57
2021/12/02 09:12:10;;;;;;;13.63;4.50;;;;;;;7.52;92.86;99046.59;5048945;28;20805;-57
2021/12/02 09:14:37;;;;;;;13.67;4.73;;;;;;;7.43;93.68;99034.75;5049012;28;20256;-58
2021/12/02 09:17:05;;;;;;;11.63;6.90;;;;;;;7.39;94.39;99035.69;5049284;28;20662;-62
2021/12/02 09:19:31;;;;;;;7.13;5.43;;;;;;;7.49;94.24;99033.75;5048750;28;20256;-58
2021/12/02 09:21:58;;;;;;;7.63;6.47;;;;;;;7.55;92.82;99036.19;5049084;28;20246;-58
2021/12/02 09:24:26;;;;;;;17.83;6.67;;;;;;;7.64;92.50;99029.06;5048468;28;20250;-57
2021/12/02 09:26:55;;;;;;;5.17;4.73;;;;;;;7.72;92.38;99031.44;5048627;28;20252;-57
2021/12/02 09:29:23;;;;;;;8.23;6.40;;;;;;;7.67;91.96;99022.97;5048386;28;20613;-57
2021/12/02 09:31:52;;;;;;;9.57;4.30;;;;;;;7.82;92.27;99011.38;5048870;28;20221;-57
2021/12/02 09:34:20;;;;;;;5.90;5.33;;;;;;;7.92;92.30;99015.44;5049081;28;20217;-57
2021/12/02 09:36:47;;;;;;;8.90;6.03;;;;;;;7.99;89.98;99017.00;5048967;28;20303;-58
2021/12/02 09:39:15;;;;;;;3.93;3.57;;;;;;;7.90;90.47;98993.97;5049009;28;20231;-57
2021/12/02 09:41:42;;;;;;;30.90;4.47;;;;;;;8.09;90.47;99015.84;5053204;28;20690;-58
2021/12/02 09:44:11;;;;;;;8.23;4.40;;;;;;;8.06;90.30;98989.22;5052806;28;20303;-57
2021/12/02 09:46:40;;;;;;;8.17;5.80;;;;;;;8.14;93.51;98977.78;5051537;28;20373;-58
2021/12/02 09:49:08;;;;;;;14.30;5.57;;;;;;;8.26;92.71;98977.44;5051019;28;20239;-57
2021/12/02 09:51:43;;;;;;;5.77;4.13;;;;;;;8.54;90.45;99003.41;5051708;28;20315;-58
2021/12/02 09:54:14;;;;;;;18.27;5.60;;;;;;;8.67;87.92;98991.81;5050812;28;20261;-57
2021/12/02 09:56:43;;;;;;;8.30;4.07;;;;;;;8.77;87.74;98988.97;5048892;28;20224;-57
2021/12/02 09:59:22;;;;;;;8.77;5.33;;;;;;;8.85;86.23;98990.41;5051235;28;20220;-58
2021/12/02 10:01:52;;;;;;;7.33;4.87;;;;;;;8.88;85.97;98979.97;5049991;28;20588;-57
2021/12/02 10:04:21;;;;;;;6.27;4.17;;;;;;;8.83;84.55;98974.09;5051088;28;20242;-58
2021/12/02 10:06:48;;;;;;;10.13;2.83;;;;;;;8.96;83.68;98971.97;5051927;28;20221;-57
2021/12/02 10:09:21;;;;;;;7.23;5.03;;;;;;;9.06;83.66;98963.88;5050702;28;20740;-58
2021/12/02 10:11:51;;;;;;;9.83;4.60;;;;;;;9.11;83.04;98955.97;5048957;28;20220;-57
2021/12/02 10:14:23;;;;;;;5.73;5.13;;;;;;;9.18;82.85;98949.69;5050513;28;20216;-58
2021/12/02 10:16:53;;;;;;;4.17;2.03;;;;;;;9.25;81.31;98934.81;5051079;28;20196;-57
2021/12/02 10:19:21;;;;;;;3.93;3.63;;;;;;;9.34;80.91;98943.13;5052922;28;20725;-58
2021/12/02 10:21:54;;;;;;;10.53;4.03;;;;;;;9.45;80.71;98932.41;5053066;28;20250;-58
2021/12/02 10:24:24;;;;;;;4.77;3.27;;;;;;;9.45;80.50;98942.78;5052450;28;20201;-57
2021/12/02 10:26:54;;;;;;;3.00;2.80;;;;;;;9.40;79.13;98936.88;5052782;28;20251;-58
2021/12/02 10:29:25;;;;;;;9.03;2.60;;;;;;;9.40;79.71;98924.78;5053058;28;20216;-57
2021/12/02 10:32:09;;;;;;;6.53;3.67;;;;;;;9.59;78.26;98927.63;5052857;28;20283;-58
2021/12/02 10:34:51;;;;;;;8.40;3.83;;;;;;;9.63;78.29;98916.22;5052665;28;20196;-58
2021/12/02 10:37:20;;;;;;;7.27;3.23;;;;;;;9.73;77.84;98907.25;5052675;28;20197;-58
2021/12/02 10:39:59;;;;;;;5.23;4.73;;;;;;;9.79;78.71;98901.00;5052723;28;20193;-59
2021/12/02 10:42:26;;;;;;;3.60;3.40;;;;;;;9.72;80.09;98878.78;5052637;28;20674;-57
2021/12/02 10:44:58;;;;;;;7.97;4.37;;;;;;;9.89;81.14;98899.78;5052616;28;20582;-58
2021/12/02 10:47:25;;;;;;;16.23;3.97;;;;;;;9.88;80.96;98900.69;5052400;28;20207;-58
2021/12/02 10:49:54;;;;;;;9.10;3.57;;;;;;;9.88;80.99;98903.28;5052185;28;20246;-58
2021/12/02 10:52:24;;;;;;;5.50;3.57;;;;;;;9.96;81.36;98910.75;5051641;28;20287;-58
2021/12/02 10:54:56;;;;;;;2.13;2.03;;;;;;;10.00;80.90;98907.16;5052346;28;20197;-59
2021/12/02 10:57:26;;;;;;;7.13;3.10;;;;;;;10.07;80.36;98893.06;5052166;28;20199;-58
2021/12/02 10:59:55;;;;;;;4.73;4.40;;;;;;;10.05;80.36;98893.13;5052350;28;20192;-58
2021/12/02 11:02:29;;;;;;;2.03;1.90;;;;;;;9.94;80.13;98881.44;5051839;28;20196;-57
2021/12/02 11:05:00;;;;;;;11.23;3.30;;;;;;;10.05;79.75;98880.16;5051767;28;20270;-58
2021/12/02 11:07:30;;;;;;;3.37;2.87;;;;;;;10.09;77.96;98881.75;5052167;28;20499;-59
2021/12/02 11:10:00;;;;;;;11.23;2.90;;;;;;;10.19;76.57;98879.69;5051646;28;20685;-58
2021/12/02 11:12:29;;;;;;;2.23;1.80;;;;;;;10.24;77.00;98875.19;5051934;28;20207;-58
2021/12/02 11:15:05;;;;;;;3.60;3.27;;;;;;;10.32;77.19;98870.53;5052073;28;20647;-58
2021/12/02 11:17:35;;;;;;;5.03;3.10;;;;;;;10.37;77.23;98872.97;5051776;28;20287;-58
2021/12/02 11:20:07;;;;;;;4.73;4.30;;;;;;;10.44;75.31;98870.09;5051672;28;20196;-58
2021/12/02 11:22:34;;;;;;;7.60;4.17;;;;;;;10.48;75.49;98868.22;5051808;28;20243;-58
2021/12/02 11:25:02;;;;;;;5.20;1.63;;;;;;;10.47;75.65;98872.56;5051598;28;20734;-57
2021/12/02 11:27:34;;;;;;;2.00;1.90;;;;;;;10.48;75.90;98866.47;5051435;28;20243;-58
2021/12/02 11:30:07;;;;;;;3.90;3.33;;;;;;;10.46;77.04;98862.25;5051541;28;20685;-58
2021/12/02 11:32:40;;;;;;;2.77;2.47;;;;;;;10.41;77.78;98858.97;5051488;28;20207;-58
2021/12/02 11:35:17;;;;;;;5.33;1.40;;;;;;;10.46;78.26;98855.31;5048839;28;20335;-59
2021/12/02 11:37:46;;;;;;;7.97;2.60;;;;;;;10.54;77.87;98853.25;5042464;28;20298;-57
2021/12/02 11:40:15;;;;;;;6.50;2.37;;;;;;;10.42;77.87;98814.81;5049543;28;20635;-57
2021/12/02 11:42:43;;;;;;;2.00;1.90;;;;;;;10.69;77.29;98838.84;5049433;28;20223;-58
2021/12/02 11:45:13;;;;;;;4.63;2.83;;;;;;;10.76;77.80;98840.25;5049515;28;20697;-57